Terminal Aerodrome Forecast
Issued by NWS Grand Forks, ND

Home | Current Version | Previous Version | Graphics & Text | Print | Product List | Glossary On
Versions: 1 2 3 4 5 6 7 8 9 10 11 12 13 14 15
000
FTUS43 KFGF 141700
TAFGFK
TAF
KGFK 141720Z 1418/1518 32012KT P6SM BKN025
      TEMPO 1418/1421 BKN030
     FM142100 31012KT P6SM BKN030
     FM150100 30004KT P6SM SCT050
     FM151100 28005KT P6SM SCT050=

USA.gov is the U.S. government's official web portal to all federal, state and local government web resources and services.